Topsham, United Kingdom
Current Conditions -  °F | °C
As of 2:20 PM on Friday 31 Oct 2014 (Local Time) from EGTE Reporting Station
Clear Clear  
Wind Chill: 64°   Ceiling: Unl
Heat Index: 64°   Visibility: 6mi
Dew Point: 59°   Wind: 15mph
Humidity: 83%   Direction: 170°S
Pressure: 29.91"   Gusts: NA
Location:  50.69°N, 3.47°W
Report Text: EGTE 311420Z 17013KT CAVOK 18/15 Q1013
Loading
Personal Weather Stations






























Interactive Weather Map
Tropical Storm Tracking
New forecast layout! Learn more

10-Day Weather Forecast

Advertisements
Track Severe Weather on mobile